sensor_id;sensor_type;location;lat;lon;timestamp;P1;durP1;ratioP1;P2;durP2;ratioP2
33150;SDS011;19508;42.578;23.416;2022-12-15T00:00:09;32.00;;;16.20;;
33150;SDS011;19508;42.578;23.416;2022-12-15T00:02:53;33.70;;;15.70;;
33150;SDS011;19508;42.578;23.416;2022-12-15T00:05:37;35.45;;;17.88;;
33150;SDS011;19508;42.578;23.416;2022-12-15T00:08:21;29.90;;;16.40;;
33150;SDS011;19508;42.578;23.416;2022-12-15T00:11:05;62.38;;;26.48;;
33150;SDS011;19508;42.578;23.416;2022-12-15T00:13:49;35.50;;;17.70;;
33150;SDS011;19508;42.578;23.416;2022-12-15T00:16:33;38.47;;;20.70;;
33150;SDS011;19508;42.578;23.416;2022-12-15T00:19:17;26.05;;;13.27;;
33150;SDS011;19508;42.578;23.416;2022-12-15T00:22:01;35.65;;;18.40;;
33150;SDS011;19508;42.578;23.416;2022-12-15T00:24:47;29.15;;;16.55;;
33150;SDS011;19508;42.578;23.416;2022-12-15T00:27:31;35.00;;;17.75;;
33150;SDS011;19508;42.578;23.416;2022-12-15T00:30:15;34.70;;;17.92;;
33150;SDS011;19508;42.578;23.416;2022-12-15T00:32:59;27.70;;;12.30;;
33150;SDS011;19508;42.578;23.416;2022-12-15T00:35:43;37.33;;;19.17;;
33150;SDS011;19508;42.578;23.416;2022-12-15T00:38:27;27.75;;;13.55;;
33150;SDS011;19508;42.578;23.416;2022-12-15T00:41:12;28.35;;;14.93;;
33150;SDS011;19508;42.578;23.416;2022-12-15T00:43:39;28.75;;;15.05;;
33150;SDS011;19508;42.578;23.416;2022-12-15T00:46:04;31.75;;;17.33;;
33150;SDS011;19508;42.578;23.416;2022-12-15T00:48:49;50.67;;;22.48;;
33150;SDS011;19508;42.578;23.416;2022-12-15T00:51:15;38.00;;;18.63;;
33150;SDS011;19508;42.578;23.416;2022-12-15T00:53:42;38.53;;;20.20;;
33150;SDS011;19508;42.578;23.416;2022-12-15T00:56:26;46.78;;;23.17;;
33150;SDS011;19508;42.578;23.416;2022-12-15T00:59:10;71.18;;;28.45;;
33150;SDS011;19508;42.578;23.416;2022-12-15T01:01:54;237.43;;;84.15;;
33150;SDS011;19508;42.578;23.416;2022-12-15T01:04:38;63.55;;;25.90;;
33150;SDS011;19508;42.578;23.416;2022-12-15T01:07:22;75.05;;;32.25;;
33150;SDS011;19508;42.578;23.416;2022-12-15T01:10:06;48.70;;;24.65;;
33150;SDS011;19508;42.578;23.416;2022-12-15T01:12:51;55.10;;;25.83;;
33150;SDS011;19508;42.578;23.416;2022-12-15T01:15:35;43.80;;;22.52;;
33150;SDS011;19508;42.578;23.416;2022-12-15T01:18:20;48.75;;;20.15;;
33150;SDS011;19508;42.578;23.416;2022-12-15T01:21:05;37.42;;;17.98;;
33150;SDS011;19508;42.578;23.416;2022-12-15T01:23:34;29.20;;;14.45;;
33150;SDS011;19508;42.578;23.416;2022-12-15T01:26:01;21.38;;;12.20;;
33150;SDS011;19508;42.578;23.416;2022-12-15T01:28:27;22.42;;;11.15;;
33150;SDS011;19508;42.578;23.416;2022-12-15T01:30:53;23.27;;;12.77;;
33150;SDS011;19508;42.578;23.416;2022-12-15T01:33:19;20.92;;;12.45;;
33150;SDS011;19508;42.578;23.416;2022-12-15T01:35:53;23.08;;;11.90;;
33150;SDS011;19508;42.578;23.416;2022-12-15T01:38:20;18.92;;;7.75;;
33150;SDS011;19508;42.578;23.416;2022-12-15T01:40:52;17.83;;;8.57;;
33150;SDS011;19508;42.578;23.416;2022-12-15T01:43:28;14.70;;;7.22;;
33150;SDS011;19508;42.578;23.416;2022-12-15T01:48:31;14.50;;;7.90;;
33150;SDS011;19508;42.578;23.416;2022-12-15T01:51:31;12.55;;;6.82;;
33150;SDS011;19508;42.578;23.416;2022-12-15T01:54:04;12.45;;;6.05;;
33150;SDS011;19508;42.578;23.416;2022-12-15T01:56:36;11.95;;;6.22;;
33150;SDS011;19508;42.578;23.416;2022-12-15T01:59:06;5.90;;;3.95;;
33150;SDS011;19508;42.578;23.416;2022-12-15T02:01:39;20.75;;;9.38;;
33150;SDS011;19508;42.578;23.416;2022-12-15T02:04:04;29.55;;;12.48;;
33150;SDS011;19508;42.578;23.416;2022-12-15T02:06:31;9.32;;;5.07;;
33150;SDS011;19508;42.578;23.416;2022-12-15T02:08:57;10.02;;;5.47;;
33150;SDS011;19508;42.578;23.416;2022-12-15T02:14:15;10.45;;;5.22;;
33150;SDS011;19508;42.578;23.416;2022-12-15T02:19:51;9.45;;;5.05;;
33150;SDS011;19508;42.578;23.416;2022-12-15T02:30:54;9.40;;;5.15;;
33150;SDS011;19508;42.578;23.416;2022-12-15T02:37:05;8.57;;;4.85;;
33150;SDS011;19508;42.578;23.416;2022-12-15T02:39:36;8.80;;;5.32;;
33150;SDS011;19508;42.578;23.416;2022-12-15T02:42:03;10.60;;;6.07;;
33150;SDS011;19508;42.578;23.416;2022-12-15T02:44:29;16.65;;;8.57;;
33150;SDS011;19508;42.578;23.416;2022-12-15T02:50:13;2.58;;;1.95;;
33150;SDS011;19508;42.578;23.416;2022-12-15T03:00:57;11.77;;;6.35;;
33150;SDS011;19508;42.578;23.416;2022-12-15T03:03:26;5.35;;;3.08;;
33150;SDS011;19508;42.578;23.416;2022-12-15T03:05:55;6.63;;;4.05;;
33150;SDS011;19508;42.578;23.416;2022-12-15T03:08:21;7.82;;;4.40;;
33150;SDS011;19508;42.578;23.416;2022-12-15T03:10:50;17.30;;;9.50;;
33150;SDS011;19508;42.578;23.416;2022-12-15T03:13:18;12.48;;;6.82;;
33150;SDS011;19508;42.578;23.416;2022-12-15T03:15:44;29.73;;;13.27;;
33150;SDS011;19508;42.578;23.416;2022-12-15T03:18:12;28.38;;;13.73;;
33150;SDS011;19508;42.578;23.416;2022-12-15T03:20:37;23.52;;;12.00;;
33150;SDS011;19508;42.578;23.416;2022-12-15T03:23:03;169.50;;;56.17;;
33150;SDS011;19508;42.578;23.416;2022-12-15T03:25:28;24.58;;;10.45;;
33150;SDS011;19508;42.578;23.416;2022-12-15T03:27:54;23.23;;;10.38;;
33150;SDS011;19508;42.578;23.416;2022-12-15T03:30:19;49.92;;;18.00;;
33150;SDS011;19508;42.578;23.416;2022-12-15T03:32:45;37.58;;;12.73;;
33150;SDS011;19508;42.578;23.416;2022-12-15T03:35:11;24.20;;;12.52;;
33150;SDS011;19508;42.578;23.416;2022-12-15T03:37:37;17.48;;;8.35;;
33150;SDS011;19508;42.578;23.416;2022-12-15T03:40:03;14.85;;;5.57;;
33150;SDS011;19508;42.578;23.416;2022-12-15T03:42:30;10.38;;;5.93;;
33150;SDS011;19508;42.578;23.416;2022-12-15T03:45:14;34.22;;;10.05;;
33150;SDS011;19508;42.578;23.416;2022-12-15T03:47:42;19.10;;;8.25;;
33150;SDS011;19508;42.578;23.416;2022-12-15T03:50:08;27.90;;;8.88;;
33150;SDS011;19508;42.578;23.416;2022-12-15T03:52:35;15.57;;;6.80;;
33150;SDS011;19508;42.578;23.416;2022-12-15T03:55:01;5.97;;;3.90;;
33150;SDS011;19508;42.578;23.416;2022-12-15T03:57:27;26.40;;;12.05;;
33150;SDS011;19508;42.578;23.416;2022-12-15T03:59:53;41.00;;;15.60;;
33150;SDS011;19508;42.578;23.416;2022-12-15T04:02:19;13.00;;;8.20;;
33150;SDS011;19508;42.578;23.416;2022-12-15T04:04:44;16.52;;;8.43;;
33150;SDS011;19508;42.578;23.416;2022-12-15T04:07:10;14.52;;;6.88;;
33150;SDS011;19508;42.578;23.416;2022-12-15T04:09:35;23.85;;;9.60;;
33150;SDS011;19508;42.578;23.416;2022-12-15T04:12:01;45.90;;;22.85;;
33150;SDS011;19508;42.578;23.416;2022-12-15T04:14:27;55.30;;;23.98;;
33150;SDS011;19508;42.578;23.416;2022-12-15T04:16:54;59.30;;;26.88;;
33150;SDS011;19508;42.578;23.416;2022-12-15T04:19:22;55.63;;;25.50;;
33150;SDS011;19508;42.578;23.416;2022-12-15T04:22:06;66.43;;;27.60;;
33150;SDS011;19508;42.578;23.416;2022-12-15T04:24:32;86.38;;;40.20;;
33150;SDS011;19508;42.578;23.416;2022-12-15T04:27:16;42.92;;;19.30;;
33150;SDS011;19508;42.578;23.416;2022-12-15T04:30:00;53.15;;;23.48;;
33150;SDS011;19508;42.578;23.416;2022-12-15T04:32:44;40.05;;;18.83;;
33150;SDS011;19508;42.578;23.416;2022-12-15T04:35:29;34.22;;;18.15;;
33150;SDS011;19508;42.578;23.416;2022-12-15T04:38:16;47.63;;;25.70;;
33150;SDS011;19508;42.578;23.416;2022-12-15T04:41:00;26.95;;;13.52;;
33150;SDS011;19508;42.578;23.416;2022-12-15T04:43:44;35.42;;;15.88;;
33150;SDS011;19508;42.578;23.416;2022-12-15T04:46:28;29.42;;;15.88;;
33150;SDS011;19508;42.578;23.416;2022-12-15T04:49:12;25.13;;;11.10;;
33150;SDS011;19508;42.578;23.416;2022-12-15T04:51:56;19.58;;;8.75;;
33150;SDS011;19508;42.578;23.416;2022-12-15T04:54:41;41.05;;;15.55;;
33150;SDS011;19508;42.578;23.416;2022-12-15T04:57:25;14.20;;;8.23;;
33150;SDS011;19508;42.578;23.416;2022-12-15T05:00:09;18.15;;;7.82;;
33150;SDS011;19508;42.578;23.416;2022-12-15T05:02:54;12.00;;;6.35;;
33150;SDS011;19508;42.578;23.416;2022-12-15T05:08:30;14.20;;;6.72;;
33150;SDS011;19508;42.578;23.416;2022-12-15T05:11:14;20.80;;;8.63;;
33150;SDS011;19508;42.578;23.416;2022-12-15T05:13:58;34.22;;;11.88;;
33150;SDS011;19508;42.578;23.416;2022-12-15T05:16:42;26.80;;;8.95;;
33150;SDS011;19508;42.578;23.416;2022-12-15T05:19:26;10.82;;;5.93;;
33150;SDS011;19508;42.578;23.416;2022-12-15T05:22:10;8.30;;;4.97;;
33150;SDS011;19508;42.578;23.416;2022-12-15T05:24:54;13.90;;;7.43;;
33150;SDS011;19508;42.578;23.416;2022-12-15T05:27:38;18.33;;;8.77;;
33150;SDS011;19508;42.578;23.416;2022-12-15T05:30:22;18.73;;;10.23;;
33150;SDS011;19508;42.578;23.416;2022-12-15T05:33:06;17.25;;;9.80;;
33150;SDS011;19508;42.578;23.416;2022-12-15T05:35:35;19.52;;;11.48;;
33150;SDS011;19508;42.578;23.416;2022-12-15T05:38:00;16.30;;;9.20;;
33150;SDS011;19508;42.578;23.416;2022-12-15T05:40:26;18.88;;;10.07;;
33150;SDS011;19508;42.578;23.416;2022-12-15T05:43:00;29.75;;;13.27;;
33150;SDS011;19508;42.578;23.416;2022-12-15T05:45:26;17.83;;;9.43;;
33150;SDS011;19508;42.578;23.416;2022-12-15T05:47:52;23.02;;;11.48;;
33150;SDS011;19508;42.578;23.416;2022-12-15T05:50:18;26.02;;;12.18;;
33150;SDS011;19508;42.578;23.416;2022-12-15T05:52:45;28.67;;;15.35;;
33150;SDS011;19508;42.578;23.416;2022-12-15T05:55:11;36.13;;;16.30;;
33150;SDS011;19508;42.578;23.416;2022-12-15T05:57:37;43.08;;;20.02;;
33150;SDS011;19508;42.578;23.416;2022-12-15T06:00:05;37.58;;;18.27;;
33150;SDS011;19508;42.578;23.416;2022-12-15T06:02:31;35.25;;;18.52;;
33150;SDS011;19508;42.578;23.416;2022-12-15T06:04:57;34.05;;;18.45;;
33150;SDS011;19508;42.578;23.416;2022-12-15T06:07:23;35.33;;;19.15;;
33150;SDS011;19508;42.578;23.416;2022-12-15T06:09:49;38.47;;;19.77;;
33150;SDS011;19508;42.578;23.416;2022-12-15T06:12:15;43.20;;;20.35;;
33150;SDS011;19508;42.578;23.416;2022-12-15T06:14:40;42.10;;;21.35;;
33150;SDS011;19508;42.578;23.416;2022-12-15T06:17:06;63.35;;;27.88;;
33150;SDS011;19508;42.578;23.416;2022-12-15T06:19:32;65.53;;;27.83;;
33150;SDS011;19508;42.578;23.416;2022-12-15T06:21:59;60.20;;;26.20;;
33150;SDS011;19508;42.578;23.416;2022-12-15T06:24:26;61.85;;;27.00;;
33150;SDS011;19508;42.578;23.416;2022-12-15T06:26:54;67.30;;;29.77;;
33150;SDS011;19508;42.578;23.416;2022-12-15T06:29:20;61.80;;;27.48;;
33150;SDS011;19508;42.578;23.416;2022-12-15T06:31:46;85.85;;;39.00;;
33150;SDS011;19508;42.578;23.416;2022-12-15T06:34:12;108.95;;;47.05;;
33150;SDS011;19508;42.578;23.416;2022-12-15T06:36:39;98.78;;;41.50;;
33150;SDS011;19508;42.578;23.416;2022-12-15T06:39:06;113.00;;;44.38;;
33150;SDS011;19508;42.578;23.416;2022-12-15T06:41:35;129.75;;;54.67;;
33150;SDS011;19508;42.578;23.416;2022-12-15T07:10:52;72.85;;;34.42;;
33150;SDS011;19508;42.578;23.416;2022-12-15T07:13:17;71.97;;;35.53;;
33150;SDS011;19508;42.578;23.416;2022-12-15T07:15:43;70.10;;;32.60;;
33150;SDS011;19508;42.578;23.416;2022-12-15T07:18:09;73.90;;;35.28;;
33150;SDS011;19508;42.578;23.416;2022-12-15T07:20:35;74.70;;;32.78;;
33150;SDS011;19508;42.578;23.416;2022-12-15T07:23:01;67.25;;;32.88;;
33150;SDS011;19508;42.578;23.416;2022-12-15T07:25:32;77.15;;;34.15;;
33150;SDS011;19508;42.578;23.416;2022-12-15T07:27:59;69.13;;;29.85;;
33150;SDS011;19508;42.578;23.416;2022-12-15T07:30:26;62.15;;;27.55;;
33150;SDS011;19508;42.578;23.416;2022-12-15T07:32:51;75.25;;;34.65;;
33150;SDS011;19508;42.578;23.416;2022-12-15T07:35:17;64.15;;;31.63;;
33150;SDS011;19508;42.578;23.416;2022-12-15T07:37:43;65.53;;;31.65;;
33150;SDS011;19508;42.578;23.416;2022-12-15T07:40:09;63.33;;;29.75;;
33150;SDS011;19508;42.578;23.416;2022-12-15T07:42:44;55.95;;;26.23;;
33150;SDS011;19508;42.578;23.416;2022-12-15T08:11:38;34.33;;;17.83;;
33150;SDS011;19508;42.578;23.416;2022-12-15T08:14:03;36.67;;;18.88;;
33150;SDS011;19508;42.578;23.416;2022-12-15T08:16:29;37.25;;;20.15;;
33150;SDS011;19508;42.578;23.416;2022-12-15T08:18:55;45.75;;;21.38;;
33150;SDS011;19508;42.578;23.416;2022-12-15T08:21:23;55.17;;;25.52;;
33150;SDS011;19508;42.578;23.416;2022-12-15T08:23:49;99.53;;;36.83;;
33150;SDS011;19508;42.578;23.416;2022-12-15T08:26:15;53.47;;;23.85;;
33150;SDS011;19508;42.578;23.416;2022-12-15T08:28:42;37.28;;;17.92;;
33150;SDS011;19508;42.578;23.416;2022-12-15T08:31:18;30.60;;;14.85;;
33150;SDS011;19508;42.578;23.416;2022-12-15T08:33:45;36.08;;;15.35;;
33150;SDS011;19508;42.578;23.416;2022-12-15T08:36:13;35.47;;;17.58;;
33150;SDS011;19508;42.578;23.416;2022-12-15T08:38:41;27.65;;;15.23;;
33150;SDS011;19508;42.578;23.416;2022-12-15T08:41:09;26.08;;;15.85;;
33150;SDS011;19508;42.578;23.416;2022-12-15T08:43:37;30.10;;;16.35;;
33150;SDS011;19508;42.578;23.416;2022-12-15T08:46:03;31.85;;;15.63;;
33150;SDS011;19508;42.578;23.416;2022-12-15T08:48:29;27.67;;;16.00;;
33150;SDS011;19508;42.578;23.416;2022-12-15T08:50:55;25.95;;;14.70;;
33150;SDS011;19508;42.578;23.416;2022-12-15T08:53:21;27.65;;;15.57;;
33150;SDS011;19508;42.578;23.416;2022-12-15T08:55:47;37.08;;;19.48;;
33150;SDS011;19508;42.578;23.416;2022-12-15T08:58:12;41.28;;;19.92;;
33150;SDS011;19508;42.578;23.416;2022-12-15T09:00:38;36.65;;;19.75;;
33150;SDS011;19508;42.578;23.416;2022-12-15T09:03:03;31.98;;;16.88;;
33150;SDS011;19508;42.578;23.416;2022-12-15T09:05:29;31.92;;;17.48;;
33150;SDS011;19508;42.578;23.416;2022-12-15T09:07:54;103.32;;;46.47;;
33150;SDS011;19508;42.578;23.416;2022-12-15T09:10:21;48.83;;;23.63;;
33150;SDS011;19508;42.578;23.416;2022-12-15T09:12:47;45.60;;;22.88;;
33150;SDS011;19508;42.578;23.416;2022-12-15T09:15:13;60.20;;;29.35;;
33150;SDS011;19508;42.578;23.416;2022-12-15T09:17:38;54.30;;;26.52;;
33150;SDS011;19508;42.578;23.416;2022-12-15T09:20:04;57.45;;;27.27;;
33150;SDS011;19508;42.578;23.416;2022-12-15T09:22:30;54.17;;;26.30;;
33150;SDS011;19508;42.578;23.416;2022-12-15T09:24:55;56.28;;;27.80;;
33150;SDS011;19508;42.578;23.416;2022-12-15T09:27:21;50.72;;;25.92;;
33150;SDS011;19508;42.578;23.416;2022-12-15T09:29:46;59.03;;;31.92;;
33150;SDS011;19508;42.578;23.416;2022-12-15T09:32:12;99.03;;;51.25;;
33150;SDS011;19508;42.578;23.416;2022-12-15T09:34:38;60.70;;;31.90;;
33150;SDS011;19508;42.578;23.416;2022-12-15T09:37:04;77.55;;;38.60;;
33150;SDS011;19508;42.578;23.416;2022-12-15T09:39:29;58.25;;;31.05;;
33150;SDS011;19508;42.578;23.416;2022-12-15T09:41:57;74.85;;;35.58;;
33150;SDS011;19508;42.578;23.416;2022-12-15T09:44:24;92.72;;;36.88;;
33150;SDS011;19508;42.578;23.416;2022-12-15T09:47:10;58.17;;;27.15;;
33150;SDS011;19508;42.578;23.416;2022-12-15T09:52:24;46.88;;;24.10;;
33150;SDS011;19508;42.578;23.416;2022-12-15T09:54:52;46.97;;;23.40;;
33150;SDS011;19508;42.578;23.416;2022-12-15T09:57:22;60.63;;;31.08;;
33150;SDS011;19508;42.578;23.416;2022-12-15T09:59:57;65.40;;;33.40;;
33150;SDS011;19508;42.578;23.416;2022-12-15T10:07:58;57.80;;;29.15;;
33150;SDS011;19508;42.578;23.416;2022-12-15T10:13:16;82.95;;;36.72;;
33150;SDS011;19508;42.578;23.416;2022-12-15T10:15:49;53.72;;;26.67;;
33150;SDS011;19508;42.578;23.416;2022-12-15T10:18:24;149.80;;;53.10;;
33150;SDS011;19508;42.578;23.416;2022-12-15T10:20:57;38.42;;;20.17;;
33150;SDS011;19508;42.578;23.416;2022-12-15T10:23:25;32.10;;;16.77;;
33150;SDS011;19508;42.578;23.416;2022-12-15T10:25:58;33.53;;;16.73;;
33150;SDS011;19508;42.578;23.416;2022-12-15T10:33:40;100.80;;;38.17;;
33150;SDS011;19508;42.578;23.416;2022-12-15T10:36:13;83.32;;;35.40;;
33150;SDS011;19508;42.578;23.416;2022-12-15T10:38:41;113.20;;;44.15;;
33150;SDS011;19508;42.578;23.416;2022-12-15T10:41:11;75.23;;;34.80;;
33150;SDS011;19508;42.578;23.416;2022-12-15T10:43:40;107.15;;;47.40;;
33150;SDS011;19508;42.578;23.416;2022-12-15T10:48:44;99.55;;;50.00;;
33150;SDS011;19508;42.578;23.416;2022-12-15T10:53:44;101.72;;;45.78;;
33150;SDS011;19508;42.578;23.416;2022-12-15T10:56:23;114.20;;;51.15;;
33150;SDS011;19508;42.578;23.416;2022-12-15T10:58:54;101.00;;;44.92;;
33150;SDS011;19508;42.578;23.416;2022-12-15T11:01:25;56.07;;;28.87;;
33150;SDS011;19508;42.578;23.416;2022-12-15T11:03:53;94.68;;;43.22;;
33150;SDS011;19508;42.578;23.416;2022-12-15T11:08:47;74.68;;;38.47;;
33150;SDS011;19508;42.578;23.416;2022-12-15T11:14:17;90.85;;;41.60;;
33150;SDS011;19508;42.578;23.416;2022-12-15T11:17:06;77.45;;;38.83;;
33150;SDS011;19508;42.578;23.416;2022-12-15T11:24:56;112.05;;;62.28;;
33150;SDS011;19508;42.578;23.416;2022-12-15T11:27:31;94.78;;;47.40;;
33150;SDS011;19508;42.578;23.416;2022-12-15T11:30:12;112.53;;;54.40;;
33150;SDS011;19508;42.578;23.416;2022-12-15T11:33:00;110.15;;;53.33;;
33150;SDS011;19508;42.578;23.416;2022-12-15T11:35:31;119.32;;;55.28;;
33150;SDS011;19508;42.578;23.416;2022-12-15T11:41:04;101.45;;;50.33;;
33150;SDS011;19508;42.578;23.416;2022-12-15T11:49:27;122.22;;;56.60;;
33150;SDS011;19508;42.578;23.416;2022-12-15T11:51:58;129.23;;;61.00;;
33150;SDS011;19508;42.578;23.416;2022-12-15T11:54:37;125.97;;;61.47;;
33150;SDS011;19508;42.578;23.416;2022-12-15T12:11:04;129.80;;;64.85;;
33150;SDS011;19508;42.578;23.416;2022-12-15T12:19:26;178.15;;;89.88;;
33150;SDS011;19508;42.578;23.416;2022-12-15T12:22:01;181.00;;;89.03;;
33150;SDS011;19508;42.578;23.416;2022-12-15T12:30:17;145.93;;;72.78;;
33150;SDS011;19508;42.578;23.416;2022-12-15T12:35:22;156.23;;;74.95;;
33150;SDS011;19508;42.578;23.416;2022-12-15T12:38:00;150.18;;;72.88;;
33150;SDS011;19508;42.578;23.416;2022-12-15T12:43:05;164.38;;;79.00;;
33150;SDS011;19508;42.578;23.416;2022-12-15T12:45:41;162.88;;;81.53;;
33150;SDS011;19508;42.578;23.416;2022-12-15T12:53:55;156.77;;;75.05;;
33150;SDS011;19508;42.578;23.416;2022-12-15T12:56:29;148.55;;;73.20;;
33150;SDS011;19508;42.578;23.416;2022-12-15T12:58:55;160.90;;;78.32;;
33150;SDS011;19508;42.578;23.416;2022-12-15T13:01:31;159.98;;;75.95;;
33150;SDS011;19508;42.578;23.416;2022-12-15T13:04:04;161.20;;;80.55;;
33150;SDS011;19508;42.578;23.416;2022-12-15T13:09:00;219.07;;;80.72;;
33150;SDS011;19508;42.578;23.416;2022-12-15T13:14:17;145.85;;;67.57;;
33150;SDS011;19508;42.578;23.416;2022-12-15T13:17:26;117.88;;;52.15;;
33150;SDS011;19508;42.578;23.416;2022-12-15T13:22:34;119.80;;;51.45;;
33150;SDS011;19508;42.578;23.416;2022-12-15T13:27:59;77.43;;;36.63;;
33150;SDS011;19508;42.578;23.416;2022-12-15T13:31:09;100.70;;;46.65;;
33150;SDS011;19508;42.578;23.416;2022-12-15T13:41:36;99.32;;;47.65;;
33150;SDS011;19508;42.578;23.416;2022-12-15T13:44:07;85.72;;;41.92;;
33150;SDS011;19508;42.578;23.416;2022-12-15T13:46:45;102.70;;;49.20;;
33150;SDS011;19508;42.578;23.416;2022-12-15T13:49:12;92.15;;;43.92;;
33150;SDS011;19508;42.578;23.416;2022-12-15T13:51:45;129.60;;;59.63;;
33150;SDS011;19508;42.578;23.416;2022-12-15T13:54:14;84.53;;;42.25;;
33150;SDS011;19508;42.578;23.416;2022-12-15T13:56:52;111.40;;;53.60;;
33150;SDS011;19508;42.578;23.416;2022-12-15T14:02:25;228.98;;;100.68;;
33150;SDS011;19508;42.578;23.416;2022-12-15T14:07:39;112.15;;;47.83;;
33150;SDS011;19508;42.578;23.416;2022-12-15T14:10:14;103.93;;;49.95;;
33150;SDS011;19508;42.578;23.416;2022-12-15T14:12:45;186.50;;;82.07;;
33150;SDS011;19508;42.578;23.416;2022-12-15T14:15:14;205.80;;;89.93;;
33150;SDS011;19508;42.578;23.416;2022-12-15T14:17:41;338.08;;;131.63;;
33150;SDS011;19508;42.578;23.416;2022-12-15T14:20:18;192.23;;;84.15;;
33150;SDS011;19508;42.578;23.416;2022-12-15T14:22:49;227.32;;;98.82;;
33150;SDS011;19508;42.578;23.416;2022-12-15T14:25:24;251.55;;;107.03;;
33150;SDS011;19508;42.578;23.416;2022-12-15T14:27:53;181.43;;;82.57;;
33150;SDS011;19508;42.578;23.416;2022-12-15T14:30:29;142.57;;;63.97;;
33150;SDS011;19508;42.578;23.416;2022-12-15T14:35:36;166.80;;;72.97;;
33150;SDS011;19508;42.578;23.416;2022-12-15T14:38:06;159.73;;;70.88;;
33150;SDS011;19508;42.578;23.416;2022-12-15T14:40:36;238.27;;;87.18;;
33150;SDS011;19508;42.578;23.416;2022-12-15T14:43:05;226.82;;;88.00;;
33150;SDS011;19508;42.578;23.416;2022-12-15T14:45:45;183.13;;;66.30;;
33150;SDS011;19508;42.578;23.416;2022-12-15T14:48:21;178.00;;;61.10;;
33150;SDS011;19508;42.578;23.416;2022-12-15T14:50:52;178.48;;;64.05;;
33150;SDS011;19508;42.578;23.416;2022-12-15T14:53:18;250.15;;;99.80;;
33150;SDS011;19508;42.578;23.416;2022-12-15T14:55:45;250.38;;;88.63;;
33150;SDS011;19508;42.578;23.416;2022-12-15T14:58:21;239.35;;;70.10;;
33150;SDS011;19508;42.578;23.416;2022-12-15T15:00:53;246.98;;;58.63;;
33150;SDS011;19508;42.578;23.416;2022-12-15T15:03:20;173.48;;;52.42;;
33150;SDS011;19508;42.578;23.416;2022-12-15T15:05:54;176.55;;;50.17;;
33150;SDS011;19508;42.578;23.416;2022-12-15T15:08:27;253.05;;;58.38;;
33150;SDS011;19508;42.578;23.416;2022-12-15T15:10:56;193.68;;;63.30;;
33150;SDS011;19508;42.578;23.416;2022-12-15T15:13:26;230.93;;;85.22;;
33150;SDS011;19508;42.578;23.416;2022-12-15T15:16:01;141.75;;;48.33;;
33150;SDS011;19508;42.578;23.416;2022-12-15T15:18:30;178.57;;;65.15;;
33150;SDS011;19508;42.578;23.416;2022-12-15T15:20:56;109.13;;;45.88;;
33150;SDS011;19508;42.578;23.416;2022-12-15T15:23:24;104.13;;;45.20;;
33150;SDS011;19508;42.578;23.416;2022-12-15T15:30:48;147.90;;;61.50;;
33150;SDS011;19508;42.578;23.416;2022-12-15T15:33:22;123.65;;;53.92;;
33150;SDS011;19508;42.578;23.416;2022-12-15T15:35:58;126.07;;;59.35;;
33150;SDS011;19508;42.578;23.416;2022-12-15T15:40:59;202.40;;;84.38;;
33150;SDS011;19508;42.578;23.416;2022-12-15T15:43:27;212.85;;;80.57;;
33150;SDS011;19508;42.578;23.416;2022-12-15T15:45:59;150.88;;;65.20;;
33150;SDS011;19508;42.578;23.416;2022-12-15T15:48:29;150.77;;;68.65;;
33150;SDS011;19508;42.578;23.416;2022-12-15T15:50:57;130.63;;;62.85;;
33150;SDS011;19508;42.578;23.416;2022-12-15T15:53:24;155.57;;;72.20;;
33150;SDS011;19508;42.578;23.416;2022-12-15T15:55:52;214.52;;;96.78;;
33150;SDS011;19508;42.578;23.416;2022-12-15T15:58:19;210.65;;;92.20;;
33150;SDS011;19508;42.578;23.416;2022-12-15T16:00:45;189.93;;;85.63;;
33150;SDS011;19508;42.578;23.416;2022-12-15T16:03:10;122.63;;;57.33;;
33150;SDS011;19508;42.578;23.416;2022-12-15T16:05:36;129.70;;;65.38;;
33150;SDS011;19508;42.578;23.416;2022-12-15T16:08:02;144.15;;;67.93;;
33150;SDS011;19508;42.578;23.416;2022-12-15T16:10:29;149.00;;;75.13;;
33150;SDS011;19508;42.578;23.416;2022-12-15T16:12:55;178.05;;;82.10;;
33150;SDS011;19508;42.578;23.416;2022-12-15T16:15:25;215.43;;;98.22;;
33150;SDS011;19508;42.578;23.416;2022-12-15T16:17:51;166.90;;;76.35;;
33150;SDS011;19508;42.578;23.416;2022-12-15T16:20:18;156.18;;;74.90;;
33150;SDS011;19508;42.578;23.416;2022-12-15T16:22:47;142.77;;;69.90;;
33150;SDS011;19508;42.578;23.416;2022-12-15T16:25:16;135.13;;;65.07;;
33150;SDS011;19508;42.578;23.416;2022-12-15T16:27:45;133.30;;;63.15;;
33150;SDS011;19508;42.578;23.416;2022-12-15T16:30:19;113.03;;;60.20;;
33150;SDS011;19508;42.578;23.416;2022-12-15T16:32:47;196.43;;;86.05;;
33150;SDS011;19508;42.578;23.416;2022-12-15T16:35:13;239.50;;;98.38;;
33150;SDS011;19508;42.578;23.416;2022-12-15T16:37:40;200.98;;;90.75;;
33150;SDS011;19508;42.578;23.416;2022-12-15T16:40:20;130.73;;;62.22;;
33150;SDS011;19508;42.578;23.416;2022-12-15T16:42:57;116.07;;;56.30;;
33150;SDS011;19508;42.578;23.416;2022-12-15T16:45:25;213.98;;;79.50;;
33150;SDS011;19508;42.578;23.416;2022-12-15T16:47:54;146.35;;;57.92;;
33150;SDS011;19508;42.578;23.416;2022-12-15T16:50:22;129.63;;;55.58;;
33150;SDS011;19508;42.578;23.416;2022-12-15T16:52:51;158.70;;;73.25;;
33150;SDS011;19508;42.578;23.416;2022-12-15T16:55:20;183.27;;;89.50;;
33150;SDS011;19508;42.578;23.416;2022-12-15T16:57:46;140.85;;;69.53;;
33150;SDS011;19508;42.578;23.416;2022-12-15T17:00:16;147.65;;;72.10;;
33150;SDS011;19508;42.578;23.416;2022-12-15T17:02:43;112.55;;;52.33;;
33150;SDS011;19508;42.578;23.416;2022-12-15T17:05:09;103.78;;;51.75;;
33150;SDS011;19508;42.578;23.416;2022-12-15T17:07:34;120.75;;;61.65;;
33150;SDS011;19508;42.578;23.416;2022-12-15T17:10:00;110.47;;;51.65;;
33150;SDS011;19508;42.578;23.416;2022-12-15T17:12:26;97.70;;;46.92;;
33150;SDS011;19508;42.578;23.416;2022-12-15T17:14:51;135.60;;;60.80;;
33150;SDS011;19508;42.578;23.416;2022-12-15T17:17:17;66.45;;;32.30;;
33150;SDS011;19508;42.578;23.416;2022-12-15T17:19:43;56.72;;;28.30;;
33150;SDS011;19508;42.578;23.416;2022-12-15T17:22:13;49.05;;;26.27;;
33150;SDS011;19508;42.578;23.416;2022-12-15T17:24:39;69.20;;;32.65;;
33150;SDS011;19508;42.578;23.416;2022-12-15T17:27:06;75.03;;;32.20;;
33150;SDS011;19508;42.578;23.416;2022-12-15T17:29:48;88.38;;;38.45;;
33150;SDS011;19508;42.578;23.416;2022-12-15T17:32:14;108.65;;;47.63;;
33150;SDS011;19508;42.578;23.416;2022-12-15T17:34:39;121.03;;;47.28;;
33150;SDS011;19508;42.578;23.416;2022-12-15T17:37:05;113.88;;;44.38;;
33150;SDS011;19508;42.578;23.416;2022-12-15T17:39:35;127.63;;;49.42;;
33150;SDS011;19508;42.578;23.416;2022-12-15T17:42:01;98.20;;;40.28;;
33150;SDS011;19508;42.578;23.416;2022-12-15T17:44:28;139.27;;;63.70;;
33150;SDS011;19508;42.578;23.416;2022-12-15T17:46:56;112.00;;;51.33;;
33150;SDS011;19508;42.578;23.416;2022-12-15T17:49:21;89.13;;;43.67;;